Orlando, Florida
Traffic Map
Current Weather Conditions
Orlando, Florida
Clear
Clear
88°
Feels Like: 97°
Wind Chill: 88° Ceiling: Unl
Heat Index: 97° Visibility: 10mi
Dew Point: 74° Wind: 8mph
Humidity: 63% Direction: 170° (S)
Pressure: 30.21in Gusts: 0mph
Raw Report DataKORL 171453Z 17007KT 10SM CLR 31/23 A3021 RMK AO2 SLP233 T03110233 51005
Traffic Incident Summary
Active as of:
Severity:
Category:
InformationThere was an issue retrieving the traffic information for this location. Please try a different location or try again shortly.
Advertisements